Time;durP1;ratioP1;P1;durP2;ratioP2;P2;SDS_P1;SDS_P2;PMS_P1;PMS_P2;Temp;Humidity;BMP_temperature;BMP_pressure;BME280_temperature;BME280_humidity;BME280_pressure;Samples;Min_cycle;Max_cycle;Signal;HPM_P1;HPM_P2
2022/06/19 00:01:19;;;;;;;12.95;1.95;;;;;;;16.00;55.12;101083.81;5033810;28;20025;-78
2022/06/19 00:03:47;;;;;;;8.80;1.95;;;;;;;15.92;55.08;101078.09;5033632;28;20033;-77
2022/06/19 00:06:13;;;;;;;13.70;2.00;;;;;;;16.01;55.39;101084.63;5035368;28;20441;-78
2022/06/19 00:08:42;;;;;;;15.05;2.17;;;;;;;15.98;54.80;101080.63;5033812;28;20033;-76
2022/06/19 00:11:14;;;;;;;9.68;1.73;;;;;;;15.96;54.81;101080.03;5034945;28;20489;-77
2022/06/19 00:13:39;;;;;;;9.63;1.75;;;;;;;15.98;54.35;101072.00;5035147;28;20026;-77
2022/06/19 00:16:05;;;;;;;9.35;1.70;;;;;;;15.93;54.14;101083.06;5035035;28;20483;-76
2022/06/19 00:18:30;;;;;;;11.10;2.03;;;;;;;16.07;53.65;101077.75;5034854;28;20033;-76
2022/06/19 00:20:56;;;;;;;9.82;1.90;;;;;;;16.04;53.65;101083.38;5033596;28;20140;-76
2022/06/19 00:23:22;;;;;;;13.13;2.10;;;;;;;16.01;53.98;101074.97;5033891;28;20079;-78
2022/06/19 00:25:47;;;;;;;13.38;2.35;;;;;;;16.18;53.75;101069.22;5033665;28;20044;-77
2022/06/19 00:28:13;;;;;;;10.13;2.10;;;;;;;15.87;53.95;101059.69;5032376;28;20033;-77
2022/06/19 00:30:38;;;;;;;10.45;2.00;;;;;;;15.92;53.77;101072.88;5032740;28;20018;-76
2022/06/19 00:33:04;;;;;;;8.25;1.80;;;;;;;15.97;53.39;101070.44;5031639;28;20087;-75
2022/06/19 00:35:30;;;;;;;6.20;1.50;;;;;;;16.04;53.42;101063.31;5033837;28;20030;-77
2022/06/19 00:37:56;;;;;;;12.02;1.60;;;;;;;16.08;53.06;101068.91;5034274;28;20453;-79
2022/06/19 00:40:24;;;;;;;11.32;1.58;;;;;;;16.22;52.66;101080.78;5033045;28;20525;-77
2022/06/19 00:42:50;;;;;;;10.20;1.65;;;;;;;16.35;52.02;101092.91;5034042;28;20040;-76
2022/06/19 00:45:41;;;;;;;9.90;1.83;;;;;;;16.31;51.88;101156.94;5034003;28;20108;-77
2022/06/19 00:48:22;;;;;;;9.82;1.80;;;;;;;16.45;51.29;101198.31;5033200;28;20101;-76
2022/06/19 00:50:50;;;;;;;8.65;1.50;;;;;;;16.48;51.01;101225.78;5032566;28;20025;-76
2022/06/19 00:53:29;;;;;;;6.93;1.60;;;;;;;16.55;50.58;101239.56;5034266;28;20219;-77
2022/06/19 00:55:56;;;;;;;8.95;1.50;;;;;;;16.42;50.50;101243.09;5034135;28;20029;-76
2022/06/19 00:58:29;;;;;;;10.82;1.70;;;;;;;16.61;49.98;101249.16;5034116;28;20025;-77
2022/06/19 01:00:59;;;;;;;9.00;1.80;;;;;;;16.69;50.00;101217.56;5032529;28;20025;-77
2022/06/19 01:03:58;;;;;;;6.75;1.40;;;;;;;16.61;50.75;101178.69;5033810;28;20063;-77
2022/06/19 01:06:25;;;;;;;7.03;1.58;;;;;;;16.63;51.02;101141.94;5032079;28;20036;-77
2022/06/19 01:08:51;;;;;;;7.00;1.50;;;;;;;16.57;51.66;101125.38;5032537;28;20033;-78
2022/06/19 01:11:19;;;;;;;4.97;1.30;;;;;;;16.63;52.17;101124.50;5031547;28;20469;-77
2022/06/19 01:13:44;;;;;;;4.53;1.38;;;;;;;16.48;53.57;101124.03;5032724;28;20076;-77
2022/06/19 01:16:10;;;;;;;3.60;1.02;;;;;;;16.56;53.83;101110.72;5033715;28;20439;-77
2022/06/19 01:18:38;;;;;;;9.98;1.25;;;;;;;16.47;54.86;101101.59;5032443;28;20029;-78
2022/06/19 01:21:16;;;;;;;3.47;0.90;;;;;;;16.43;55.81;101098.63;5033902;28;20024;-78
2022/06/19 01:23:56;;;;;;;6.32;0.93;;;;;;;16.44;56.71;101128.13;5034110;28;20064;-76
2022/06/19 01:26:22;;;;;;;5.40;1.40;;;;;;;16.60;56.36;101155.41;5033733;28;20108;-76
2022/06/19 01:28:57;;;;;;;7.25;1.48;;;;;;;16.68;55.71;101144.69;5032363;28;20515;-77
2022/06/19 01:31:46;;;;;;;17.52;1.60;;;;;;;16.70;58.58;101153.13;5032540;28;20108;-78
2022/06/19 01:34:35;;;;;;;19.08;3.08;;;;;;;16.37;69.38;101166.50;5033683;28;20034;-77
2022/06/19 01:37:04;;;;;;;9.48;1.55;;;;;;;15.88;69.93;101171.56;5033810;28;20420;-77
2022/06/19 01:39:37;;;;;;;6.25;1.42;;;;;;;15.53;70.96;101171.13;5033617;28;20350;-77
2022/06/19 01:42:04;;;;;;;10.18;1.67;;;;;;;15.43;71.24;101170.81;5032523;28;20539;-76
2022/06/19 01:44:31;;;;;;;9.60;1.40;;;;;;;15.45;70.76;101166.16;5033589;28;20029;-77
2022/06/19 01:46:57;;;;;;;9.40;1.85;;;;;;;15.42;72.51;101157.00;5033356;28;20083;-75
2022/06/19 01:49:23;;;;;;;8.27;1.70;;;;;;;15.12;70.18;101156.75;5033522;28;20031;-76
2022/06/19 01:51:51;;;;;;;7.80;1.48;;;;;;;15.09;66.22;101170.16;5031970;28;20116;-76
2022/06/19 01:54:23;;;;;;;8.93;1.48;;;;;;;15.14;67.55;101174.78;5032340;28;20026;-76
2022/06/19 01:56:51;;;;;;;7.65;1.42;;;;;;;15.14;69.44;101157.34;5037836;28;20079;-77
2022/06/19 01:59:17;;;;;;;4.53;1.08;;;;;;;15.19;68.05;101156.69;5037281;28;20143;-76
2022/06/19 02:01:42;;;;;;;9.05;1.30;;;;;;;15.27;67.60;101151.25;5037130;28;20025;-78
2022/06/19 02:04:08;;;;;;;8.38;1.35;;;;;;;15.27;63.91;101141.63;5035865;28;20546;-78
2022/06/19 02:06:50;;;;;;;11.50;1.30;;;;;;;15.22;59.85;101132.84;5037340;28;20046;-78
2022/06/19 02:09:19;;;;;;;6.88;1.20;;;;;;;15.03;57.80;101126.75;5037250;28;20056;-77
2022/06/19 02:11:44;;;;;;;11.73;1.40;;;;;;;15.05;55.80;101116.94;5035898;28;20024;-76
2022/06/19 02:14:12;;;;;;;5.50;1.23;;;;;;;15.11;56.06;101110.91;5035921;28;20453;-78
2022/06/19 02:16:41;;;;;;;7.60;1.40;;;;;;;15.07;56.56;101118.31;5037296;28;20110;-76
2022/06/19 02:19:07;;;;;;;8.35;1.15;;;;;;;15.11;58.08;101136.94;5035735;28;20022;-77
2022/06/19 02:21:46;;;;;;;10.13;1.90;;;;;;;15.22;59.40;101196.16;5036009;28;20037;-77
2022/06/19 02:24:15;;;;;;;11.30;1.58;;;;;;;15.52;61.43;101256.28;5035833;28;20492;-77
2022/06/19 02:26:42;;;;;;;15.27;1.88;;;;;;;15.44;63.60;101256.53;5037092;28;20021;-76
2022/06/19 02:29:10;;;;;;;10.90;2.00;;;;;;;15.54;64.90;101230.84;5036807;28;20041;-75
2022/06/19 02:31:38;;;;;;;7.25;1.90;;;;;;;15.40;66.85;101164.22;5035459;28;20055;-76
2022/06/19 02:34:12;;;;;;;10.52;1.80;;;;;;;15.48;67.44;101145.75;5036869;28;20021;-76
2022/06/19 02:36:42;;;;;;;8.95;2.15;;;;;;;15.53;67.45;101116.44;5035361;28;20017;-77
2022/06/19 02:39:18;;;;;;;8.82;2.10;;;;;;;15.34;69.88;101087.72;5036406;28;20461;-76
2022/06/19 02:42:24;;;;;;;19.38;2.42;;;;;;;15.27;70.81;101068.72;5036820;28;20031;-76
2022/06/19 02:44:58;;;;;;;15.77;2.35;;;;;;;15.37;70.53;101090.94;5036417;28;20025;-76
2022/06/19 02:47:26;;;;;;;16.10;2.35;;;;;;;15.53;71.16;101171.13;5036681;28;20025;-76
2022/06/19 02:49:52;;;;;;;12.07;1.83;;;;;;;15.64;72.66;101316.34;5036365;28;20369;-76
2022/06/19 02:52:18;;;;;;;13.18;2.17;;;;;;;15.57;73.53;101398.97;5035159;28;20033;-75
2022/06/19 02:54:43;;;;;;;14.30;2.38;;;;;;;15.52;74.44;101352.69;5034771;28;20500;-77
2022/06/19 02:57:11;;;;;;;16.55;2.42;;;;;;;15.66;72.22;101249.22;5035917;28;20457;-77
2022/06/19 02:59:36;;;;;;;13.63;2.20;;;;;;;15.46;73.00;101231.09;5035807;28;20030;-77
2022/06/19 03:02:02;;;;;;;18.77;2.10;;;;;;;15.62;72.62;101253.22;5034564;28;20027;-77
2022/06/19 03:04:35;;;;;;;14.07;2.30;;;;;;;15.64;72.29;101162.66;5035612;28;20052;-77
2022/06/19 03:07:00;;;;;;;17.83;2.15;;;;;;;15.26;72.87;101106.19;5033749;28;20112;-77
2022/06/19 03:09:25;;;;;;;12.98;1.80;;;;;;;15.39;73.29;101100.09;5034383;28;20022;-77
2022/06/19 03:11:51;;;;;;;21.35;2.80;;;;;;;15.38;72.94;101102.94;5035685;28;20037;-77
2022/06/19 03:14:16;;;;;;;15.13;2.20;;;;;;;15.52;72.98;101096.63;5035805;28;20083;-77
2022/06/19 03:16:42;;;;;;;14.85;2.55;;;;;;;15.35;71.79;101071.09;5034473;28;20026;-77
2022/06/19 03:19:07;;;;;;;12.80;2.17;;;;;;;15.13;71.05;101025.56;5034439;28;20112;-77
2022/06/19 03:21:33;;;;;;;14.43;2.17;;;;;;;14.94;70.87;100982.28;5036001;28;20026;-77
2022/06/19 03:23:58;;;;;;;12.70;2.08;;;;;;;14.91;69.02;100948.88;5035603;28;20025;-77
2022/06/19 03:26:26;;;;;;;13.02;1.73;;;;;;;14.74;69.47;100910.38;5034245;28;20393;-78
2022/06/19 03:28:51;;;;;;;12.02;2.05;;;;;;;14.85;71.27;100872.47;5034143;28;20075;-77
2022/06/19 03:31:21;;;;;;;12.93;2.00;;;;;;;14.99;71.20;100866.16;5035863;28;20033;-77
2022/06/19 03:33:47;;;;;;;10.13;1.85;;;;;;;15.18;71.11;100877.38;5034278;28;20029;-79
2022/06/19 03:36:12;;;;;;;13.32;2.10;;;;;;;15.26;70.45;100877.09;5035502;28;20111;-77
2022/06/19 03:38:37;;;;;;;12.20;1.75;;;;;;;15.14;69.78;100878.03;5034129;28;20032;-77
2022/06/19 03:41:03;;;;;;;9.77;1.55;;;;;;;15.12;68.43;100860.81;5033972;28;20032;-77
2022/06/19 03:43:28;;;;;;;14.32;1.95;;;;;;;15.09;68.91;100852.63;5035295;28;20026;-76
2022/06/19 03:46:02;;;;;;;12.27;1.73;;;;;;;15.09;68.43;100878.66;5034063;28;20469;-77
2022/06/19 03:48:28;;;;;;;12.20;1.98;;;;;;;14.85;69.58;100868.06;5034147;28;20492;-78
2022/06/19 03:50:53;;;;;;;6.90;1.80;;;;;;;14.97;69.05;100896.00;5035722;28;20029;-76
2022/06/19 03:53:19;;;;;;;14.70;2.20;;;;;;;15.33;68.16;100927.31;5033879;28;20036;-77
2022/06/19 03:55:44;;;;;;;16.63;1.92;;;;;;;15.32;66.03;100946.53;5033647;28;20104;-76
2022/06/19 03:58:10;;;;;;;15.32;2.10;;;;;;;15.17;64.72;100935.66;5033667;28;20389;-77
2022/06/19 04:00:35;;;;;;;17.80;2.50;;;;;;;15.25;64.51;100934.59;5034495;28;20030;-77
2022/06/19 04:03:01;;;;;;;11.00;1.70;;;;;;;15.40;64.33;100947.28;5033449;28;20087;-77
2022/06/19 04:05:26;;;;;;;9.10;1.73;;;;;;;15.59;65.56;100951.50;5034372;28;20115;-77
2022/06/19 04:07:52;;;;;;;8.57;1.70;;;;;;;15.42;61.83;100953.06;5033354;28;20025;-77
2022/06/19 04:10:19;;;;;;;20.75;2.38;;;;;;;15.18;62.39;100941.66;5034454;28;20017;-76
2022/06/19 04:12:45;;;;;;;7.85;1.73;;;;;;;15.38;62.72;100923.25;5034287;28;20021;-77
2022/06/19 04:15:11;;;;;;;10.70;1.92;;;;;;;15.22;62.66;100903.75;5034468;28;20388;-76
2022/06/19 04:17:38;;;;;;;8.40;1.52;;;;;;;15.33;62.79;100900.47;5034125;28;20384;-77
2022/06/19 04:20:07;;;;;;;17.38;1.88;;;;;;;15.32;64.30;100886.66;5033608;28;20099;-76
2022/06/19 04:22:32;;;;;;;11.10;1.75;;;;;;;15.36;63.13;100866.19;5033267;28;20496;-76
2022/06/19 04:24:58;;;;;;;8.32;1.75;;;;;;;15.18;67.11;100840.94;5032895;28;20025;-76
2022/06/19 04:27:23;;;;;;;16.95;2.05;;;;;;;14.72;66.64;100799.72;5034432;28;20385;-76
2022/06/19 04:29:49;;;;;;;7.88;1.65;;;;;;;14.39;68.29;100697.56;5032848;28;20112;-76
2022/06/19 04:32:14;;;;;;;11.93;2.15;;;;;;;14.30;70.54;100581.91;5032874;28;20384;-77
2022/06/19 04:34:39;;;;;;;15.80;2.35;;;;;;;13.98;74.71;100535.25;5033151;28;20384;-76
2022/06/19 04:37:05;;;;;;;11.20;2.08;;;;;;;13.94;74.42;100565.25;5032724;28;20079;-76
2022/06/19 04:39:30;;;;;;;10.80;1.98;;;;;;;14.28;76.47;100755.44;5032434;28;20124;-76
2022/06/19 04:41:55;;;;;;;16.40;2.50;;;;;;;14.38;76.71;100916.16;5034066;28;20025;-76
2022/06/19 04:44:21;;;;;;;12.65;2.00;;;;;;;14.25;78.99;100940.44;5033851;28;20076;-77
2022/06/19 04:46:47;;;;;;;12.07;1.90;;;;;;;14.25;79.74;100942.22;5033911;28;20037;-76
2022/06/19 04:49:14;;;;;;;14.70;2.42;;;;;;;14.30;78.57;100979.59;5032634;28;20036;-76
2022/06/19 04:51:40;;;;;;;14.05;2.40;;;;;;;14.39;79.83;100999.16;5033733;28;20079;-77
2022/06/19 04:54:05;;;;;;;10.73;2.00;;;;;;;14.22;80.05;101016.22;5033864;28;20037;-77
2022/06/19 04:56:30;;;;;;;11.93;2.28;;;;;;;14.35;80.67;101013.53;5032336;28;20032;-77
2022/06/19 04:58:56;;;;;;;13.55;2.15;;;;;;;14.40;79.44;100987.75;5032337;28;20094;-76
2022/06/19 05:01:26;;;;;;;16.40;2.08;;;;;;;14.43;77.80;100965.72;5033645;28;20025;-76
2022/06/19 05:03:55;;;;;;;13.48;2.33;;;;;;;14.71;77.99;100991.44;5031900;28;20057;-75
2022/06/19 05:06:20;;;;;;;14.40;2.03;;;;;;;15.00;77.87;100976.25;5031716;28;20074;-76
2022/06/19 05:08:46;;;;;;;8.50;2.00;;;;;;;15.18;77.24;101007.53;5033379;28;20025;-76
2022/06/19 05:11:12;;;;;;;10.32;2.20;;;;;;;15.22;76.70;101008.72;5034657;28;20028;-76
2022/06/19 05:13:37;;;;;;;11.23;2.42;;;;;;;15.22;76.80;101000.09;5033736;28;20111;-76
2022/06/19 05:16:09;;;;;;;13.98;2.03;;;;;;;15.26;77.12;101007.28;5033630;28;20488;-76
2022/06/19 05:18:34;;;;;;;14.20;2.28;;;;;;;15.60;76.06;100992.16;5033405;28;20079;-76
2022/06/19 05:21:01;;;;;;;13.77;2.10;;;;;;;15.71;73.96;100994.09;5033490;28;20034;-77
2022/06/19 05:23:28;;;;;;;18.25;2.35;;;;;;;15.84;74.48;101013.22;5033382;28;20052;-76
2022/06/19 05:26:02;;;;;;;15.55;2.65;;;;;;;15.59;74.19;101032.22;5031933;28;20022;-76
2022/06/19 05:28:29;;;;;;;12.80;1.83;;;;;;;15.57;74.38;101029.06;5033318;28;20079;-77
2022/06/19 05:30:56;;;;;;;15.23;2.20;;;;;;;15.67;77.08;101055.41;5031410;28;20014;-76
2022/06/19 05:33:27;;;;;;;12.05;2.10;;;;;;;15.64;76.61;101055.06;5032032;28;20033;-76
2022/06/19 05:35:52;;;;;;;11.68;2.10;;;;;;;15.81;76.84;101053.53;5031950;28;20017;-76
2022/06/19 05:38:19;;;;;;;10.63;2.03;;;;;;;15.96;77.05;101033.13;5033234;28;20025;-76
2022/06/19 05:40:44;;;;;;;11.88;1.92;;;;;;;16.03;75.39;101043.50;5031789;28;20036;-76
2022/06/19 05:43:10;;;;;;;11.88;2.05;;;;;;;15.91;76.76;101055.63;5031851;28;20022;-76
2022/06/19 05:45:35;;;;;;;13.25;2.42;;;;;;;15.97;76.72;101075.66;5032099;28;20021;-76
2022/06/19 05:48:01;;;;;;;18.55;2.75;;;;;;;15.69;75.45;101061.25;5032039;28;20029;-76
2022/06/19 05:50:26;;;;;;;10.80;1.98;;;;;;;15.79;75.44;101055.53;5031772;28;20017;-77
2022/06/19 05:52:52;;;;;;;12.95;2.40;;;;;;;15.63;74.85;101024.81;5032988;28;20477;-76
2022/06/19 05:55:17;;;;;;;11.02;1.92;;;;;;;15.34;76.64;101025.25;5032962;28;20021;-77
2022/06/19 05:57:43;;;;;;;15.60;2.03;;;;;;;15.38;76.83;101020.41;5033471;28;20481;-76
2022/06/19 06:00:09;;;;;;;12.40;2.22;;;;;;;15.30;78.26;100982.38;5033138;28;20032;-77
2022/06/19 06:02:35;;;;;;;10.45;2.10;;;;;;;15.26;77.32;100949.19;5032766;28;20033;-76
2022/06/19 06:05:01;;;;;;;11.35;2.53;;;;;;;15.31;79.11;100949.38;5031642;28;20053;-77
2022/06/19 06:07:27;;;;;;;13.60;2.15;;;;;;;15.37;77.09;100990.16;5031674;28;20049;-78
2022/06/19 06:09:52;;;;;;;8.02;1.88;;;;;;;15.46;78.65;101034.97;5032694;28;20029;-78
2022/06/19 06:12:18;;;;;;;13.45;2.22;;;;;;;15.38;77.66;101056.06;5032829;28;20360;-75
2022/06/19 06:14:43;;;;;;;12.85;2.00;;;;;;;15.28;77.10;101059.94;5033100;28;20021;-78
2022/06/19 06:17:09;;;;;;;10.60;1.95;;;;;;;15.59;77.11;101086.94;5032970;28;20032;-79
2022/06/19 06:19:34;;;;;;;10.65;2.10;;;;;;;15.34;75.52;101111.16;5031547;28;20084;-76
2022/06/19 06:22:02;;;;;;;10.77;2.00;;;;;;;15.33;76.61;101130.41;5031682;28;20393;-76
2022/06/19 06:24:27;;;;;;;9.15;1.98;;;;;;;15.44;76.11;101141.16;5031414;28;20017;-79
2022/06/19 06:26:53;;;;;;;9.48;1.77;;;;;;;15.46;75.46;101170.41;5032765;28;20048;-78
2022/06/19 06:29:20;;;;;;;13.82;2.17;;;;;;;15.20;74.97;101192.94;5032864;28;20100;-77
2022/06/19 06:31:46;;;;;;;7.82;1.77;;;;;;;15.31;75.78;101207.94;5031457;28;20124;-76
2022/06/19 06:34:11;;;;;;;14.15;2.35;;;;;;;15.45;75.66;101213.06;5032636;28;20543;-76
2022/06/19 06:36:37;;;;;;;8.52;1.67;;;;;;;15.50;74.99;101201.00;5031420;28;20029;-76
2022/06/19 06:39:02;;;;;;;10.00;2.10;;;;;;;15.41;72.99;101204.88;5032570;28;20025;-76
2022/06/19 06:41:27;;;;;;;12.35;2.22;;;;;;;15.33;74.10;101199.91;5031818;28;20087;-76
2022/06/19 06:43:53;;;;;;;12.88;2.28;;;;;;;15.28;73.61;101208.34;5034926;28;20037;-77
2022/06/19 06:46:23;;;;;;;12.73;1.92;;;;;;;15.22;75.28;101211.78;5037576;28;20029;-76
2022/06/19 06:48:51;;;;;;;9.77;1.95;;;;;;;15.32;74.47;101214.72;5038114;28;20026;-78
2022/06/19 06:51:21;;;;;;;14.05;2.08;;;;;;;15.42;74.36;101214.28;5037476;28;20022;-76
2022/06/19 06:53:46;;;;;;;12.93;1.98;;;;;;;15.33;74.30;101220.72;5034807;28;20117;-77
2022/06/19 06:56:11;;;;;;;7.97;1.75;;;;;;;15.33;74.12;101231.97;5035004;28;20057;-78
2022/06/19 06:58:38;;;;;;;9.70;2.10;;;;;;;15.47;73.69;101226.69;5035262;28;20076;-76
2022/06/19 07:01:16;;;;;;;15.57;2.22;;;;;;;15.51;73.52;101244.28;5034569;28;20018;-77
2022/06/19 07:03:43;;;;;;;10.93;2.08;;;;;;;15.52;73.73;101248.47;5032483;28;20025;-77
2022/06/19 07:06:08;;;;;;;10.73;2.40;;;;;;;15.56;73.44;101249.69;5033639;28;20052;-77
2022/06/19 07:08:34;;;;;;;9.05;1.90;;;;;;;15.57;72.43;101258.28;5033179;28;20056;-78
2022/06/19 07:10:59;;;;;;;10.02;2.33;;;;;;;15.49;72.68;101253.31;5036089;28;20107;-75
2022/06/19 07:13:24;;;;;;;11.70;2.08;;;;;;;15.51;73.23;101257.31;5035687;28;20427;-78
2022/06/19 07:15:51;;;;;;;10.68;2.20;;;;;;;15.50;72.88;101260.13;5035720;28;20021;-78
2022/06/19 07:18:19;;;;;;;11.40;2.08;;;;;;;15.36;73.69;101246.34;5036230;28;20101;-76
2022/06/19 07:20:44;;;;;;;9.45;1.90;;;;;;;15.46;74.21;101248.53;5034400;28;20040;-77
2022/06/19 07:23:10;;;;;;;8.38;2.00;;;;;;;15.52;74.47;101245.09;5035383;28;20025;-76
2022/06/19 07:25:35;;;;;;;13.70;2.17;;;;;;;15.70;74.39;101253.03;5033396;28;20028;-77
2022/06/19 07:28:00;;;;;;;10.25;2.00;;;;;;;15.25;74.32;101249.63;5035544;28;20040;-77
2022/06/19 07:30:27;;;;;;;12.75;2.45;;;;;;;15.39;76.48;101265.97;5033948;28;20171;-76
2022/06/19 07:32:54;;;;;;;6.60;1.55;;;;;;;15.50;76.04;101267.94;5035222;28;20040;-76
2022/06/19 07:35:20;;;;;;;12.70;2.45;;;;;;;15.62;76.77;101271.47;5034268;28;20021;-77
2022/06/19 07:37:45;;;;;;;9.07;2.03;;;;;;;15.64;76.92;101274.66;5033980;28;20025;-77
2022/06/19 07:40:14;;;;;;;12.25;2.17;;;;;;;15.58;77.52;101278.91;5034993;28;20538;-77
2022/06/19 07:42:39;;;;;;;11.95;2.10;;;;;;;15.62;78.38;101279.28;5035182;28;20439;-76
2022/06/19 07:45:05;;;;;;;11.27;1.95;;;;;;;15.45;78.56;101263.34;5035089;28;20029;-78
2022/06/19 07:50:16;;;;;;;10.15;1.88;;;;;;;15.25;82.68;101273.06;5034815;28;20037;-75
2022/06/19 07:52:45;;;;;;;20.33;2.70;;;;;;;15.08;82.50;101285.72;5032857;28;20053;-76
2022/06/19 07:55:31;;;;;;;12.55;2.03;;;;;;;15.16;84.00;101295.88;5031461;28;20022;-75
2022/06/19 07:57:59;;;;;;;12.07;2.13;;;;;;;15.26;84.90;101298.88;5032972;28;20128;-79
2022/06/19 08:00:28;;;;;;;11.10;2.40;;;;;;;15.37;84.04;101299.25;5034629;28;20032;-76
2022/06/19 08:02:54;;;;;;;13.95;2.65;;;;;;;15.33;83.67;101289.25;5033604;28;20041;-75
2022/06/19 08:05:21;;;;;;;14.00;2.30;;;;;;;15.18;82.79;101280.06;5034177;28;20049;-78
2022/06/19 08:07:47;;;;;;;12.52;2.13;;;;;;;15.27;83.29;101271.03;5033657;28;20025;-78
2022/06/19 08:10:20;;;;;;;16.20;2.38;;;;;;;15.24;83.58;101255.81;5033299;28;20031;-78
2022/06/19 08:12:46;;;;;;;13.90;2.25;;;;;;;15.32;84.19;101250.38;5033601;28;20503;-77
2022/06/19 08:15:12;;;;;;;11.68;2.30;;;;;;;15.58;84.06;101232.03;5031827;28;20087;-77
2022/06/19 08:17:37;;;;;;;11.93;1.90;;;;;;;15.54;82.75;101215.22;5032620;28;20029;-76
2022/06/19 08:20:03;;;;;;;10.98;1.95;;;;;;;15.48;83.23;101199.63;5032463;28;20116;-76
2022/06/19 08:22:28;;;;;;;10.00;1.95;;;;;;;15.69;85.04;101196.72;5034560;28;20029;-76
2022/06/19 08:24:54;;;;;;;11.55;2.00;;;;;;;15.71;82.63;101181.69;5033067;28;20056;-77
2022/06/19 08:27:19;;;;;;;10.63;2.25;;;;;;;15.79;83.41;101171.00;5033150;28;20025;-76
2022/06/19 08:29:44;;;;;;;14.32;2.22;;;;;;;15.72;82.04;101164.25;5034391;28;20024;-76
2022/06/19 08:32:10;;;;;;;11.93;2.45;;;;;;;15.97;81.39;101154.63;5032801;28;20112;-76
2022/06/19 08:34:35;;;;;;;11.88;2.22;;;;;;;16.15;80.22;101179.16;5032550;28;20053;-76
2022/06/19 08:37:05;;;;;;;11.40;1.92;;;;;;;16.19;80.67;101182.91;5032756;28;20444;-75
2022/06/19 08:39:31;;;;;;;13.40;2.15;;;;;;;16.45;79.46;101180.06;5032649;28;20083;-76
2022/06/19 08:41:59;;;;;;;9.50;1.98;;;;;;;16.14;79.59;101180.97;5031767;28;20030;-76
2022/06/19 08:44:37;;;;;;;10.32;2.22;;;;;;;16.36;80.78;101196.19;5033975;28;20542;-75
2022/06/19 08:47:41;;;;;;;8.88;1.88;;;;;;;16.16;80.30;101196.38;5033905;28;20132;-76
2022/06/19 08:50:53;;;;;;;10.68;1.92;;;;;;;16.03;82.37;101202.50;5025508;28;20033;-76
2022/06/19 08:53:41;;;;;;;8.10;1.80;;;;;;;15.86;81.25;101199.63;5033869;28;20033;-77
2022/06/19 08:56:15;;;;;;;10.60;2.00;;;;;;;15.97;81.06;101208.56;5033517;28;20477;-76
2022/06/19 08:59:04;;;;;;;11.02;1.70;;;;;;;15.94;80.45;101235.03;5032114;28;20457;-77
2022/06/19 09:01:41;;;;;;;13.10;1.98;;;;;;;15.86;81.87;101235.31;5032238;28;20022;-76
2022/06/19 09:07:27;;;;;;;12.23;2.25;;;;;;;16.36;79.54;101202.22;5033898;28;20044;-77
2022/06/19 09:10:17;;;;;;;9.20;1.83;;;;;;;16.61;76.86;101190.94;5032255;28;20398;-77
2022/06/19 09:13:09;;;;;;;10.88;1.90;;;;;;;16.76;76.36;101183.59;5032203;28;20030;-77
2022/06/19 09:15:50;;;;;;;8.32;1.90;;;;;;;16.54;75.10;101182.38;5033529;28;20057;-78
2022/06/19 09:18:22;;;;;;;9.82;2.10;;;;;;;16.94;77.26;101176.75;5033377;28;20029;-77
2022/06/19 09:21:14;;;;;;;11.10;1.80;;;;;;;17.26;76.20;101182.56;5033483;28;20017;-78
2022/06/19 09:23:57;;;;;;;10.38;1.58;;;;;;;17.22;70.88;101194.50;5028412;28;20125;-77
2022/06/19 09:26:34;;;;;;;6.05;1.75;;;;;;;17.71;70.98;101179.53;5034810;28;20029;-78
2022/06/19 09:29:14;;;;;;;8.10;1.77;;;;;;;18.12;71.30;101177.91;5033956;28;20029;-78
2022/06/19 09:31:55;;;;;;;7.72;1.73;;;;;;;18.24;68.83;101178.69;5032016;28;20104;-78
2022/06/19 09:34:34;;;;;;;9.20;1.70;;;;;;;18.45;69.11;101166.88;5033278;28;20033;-78
2022/06/19 09:37:13;;;;;;;10.65;2.13;;;;;;;19.14;65.73;101164.31;5033137;28;20029;-78
2022/06/19 09:39:50;;;;;;;10.05;2.35;;;;;;;20.26;62.87;101139.88;5032203;28;20499;-77
2022/06/19 09:42:25;;;;;;;6.93;1.88;;;;;;;20.35;61.69;101134.22;5032038;28;20025;-77
2022/06/19 09:44:50;;;;;;;7.57;1.80;;;;;;;19.74;62.34;101142.84;5033522;28;20029;-76
2022/06/19 09:47:19;;;;;;;7.30;1.90;;;;;;;19.02;62.21;101132.13;5032164;28;20383;-77
2022/06/19 09:49:50;;;;;;;9.07;2.00;;;;;;;18.95;62.94;101113.94;5032962;28;20048;-77
2022/06/19 09:52:22;;;;;;;7.38;1.50;;;;;;;18.57;64.53;101102.22;5033164;28;20025;-77
2022/06/19 09:55:05;;;;;;;11.50;1.90;;;;;;;18.55;64.44;101100.84;5033029;28;20026;-78
2022/06/19 09:57:47;;;;;;;8.27;1.80;;;;;;;18.38;65.99;101100.78;5034164;28;20033;-78
2022/06/19 10:00:21;;;;;;;8.93;1.88;;;;;;;18.11;67.07;101124.03;5036226;28;20034;-77
2022/06/19 10:02:46;;;;;;;8.40;1.88;;;;;;;17.65;67.00;101123.75;5033929;28;20072;-78
2022/06/19 10:05:36;;;;;;;8.98;2.03;;;;;;;17.51;67.75;101120.53;5032633;28;20058;-77
2022/06/19 10:08:09;;;;;;;8.50;1.95;;;;;;;17.43;69.03;101148.78;5032856;28;20029;-78
2022/06/19 10:10:37;;;;;;;9.30;1.80;;;;;;;17.44;70.28;101148.59;5031476;28;20485;-77
2022/06/19 10:13:17;;;;;;;12.73;2.00;;;;;;;17.60;69.59;101153.16;5031536;28;20077;-77
2022/06/19 10:15:44;;;;;;;11.80;2.13;;;;;;;17.68;68.95;101153.84;5032225;28;20029;-77
2022/06/19 10:18:32;;;;;;;13.90;2.30;;;;;;;17.43;68.99;101167.88;5036776;28;20470;-76
2022/06/19 10:20:58;;;;;;;9.75;1.80;;;;;;;17.43;69.06;101185.38;5035111;28;20034;-75
2022/06/19 10:23:39;;;;;;;8.77;1.90;;;;;;;17.35;70.95;101207.41;5035398;28;20045;-77
2022/06/19 10:26:40;;;;;;;10.52;1.92;;;;;;;16.90;71.63;101207.72;5035251;28;20033;-75
2022/06/19 10:29:19;;;;;;;11.85;2.00;;;;;;;16.73;71.98;101211.91;5036504;28;20048;-76
2022/06/19 10:32:16;;;;;;;8.98;1.75;;;;;;;16.84;71.60;101216.44;5035276;28;20063;-76
2022/06/19 10:35:25;;;;;;;13.77;1.95;;;;;;;16.78;72.24;101215.50;5036425;28;20431;-77
2022/06/19 10:38:05;;;;;;;8.85;1.85;;;;;;;16.54;72.39;101214.47;5035094;28;20026;-76
2022/06/19 10:40:41;;;;;;;10.85;2.00;;;;;;;16.74;71.90;101196.00;5033808;28;20022;-76
2022/06/19 10:43:31;;;;;;;8.55;2.00;;;;;;;16.58;71.61;101209.66;5035116;28;20036;-76
2022/06/19 10:46:00;;;;;;;8.35;2.00;;;;;;;16.83;71.11;101214.81;5035457;28;20021;-77
2022/06/19 10:48:31;;;;;;;8.75;1.80;;;;;;;17.01;71.13;101220.06;5035718;28;20095;-76
2022/06/19 10:51:09;;;;;;;9.43;1.90;;;;;;;16.77;71.40;101220.91;5035031;28;20389;-77
2022/06/19 10:53:56;;;;;;;9.90;2.10;;;;;;;16.92;71.14;101226.59;5034697;28;20037;-78
2022/06/19 10:56:21;;;;;;;9.10;1.95;;;;;;;16.77;70.87;101228.75;5034266;28;20061;-75
2022/06/19 10:58:47;;;;;;;7.97;1.80;;;;;;;16.65;71.78;101233.84;5034272;28;20056;-76
2022/06/19 11:04:06;;;;;;;6.95;1.50;;;;;;;16.77;71.26;101241.78;5034688;28;20287;-76
2022/06/19 11:04:07;;;;;;;7.65;1.90;;;;;;;16.94;71.26;101237.59;5034299;28;20071;-77
2022/06/19 11:07:11;;;;;;;9.85;1.90;;;;;;;16.78;70.89;101191.22;5036026;28;20043;-77
2022/06/19 11:09:43;;;;;;;7.80;1.70;;;;;;;17.01;70.09;101193.16;5035794;28;20041;-76
2022/06/19 11:12:33;;;;;;;9.10;1.80;;;;;;;17.13;69.52;101167.88;5035632;28;20388;-78
2022/06/19 11:15:01;;;;;;;11.90;1.90;;;;;;;17.34;68.24;101163.97;5035472;28;20025;-77
2022/06/19 11:17:36;;;;;;;8.02;1.70;;;;;;;17.94;68.24;101173.59;5035622;28;20026;-75
2022/06/19 11:20:16;;;;;;;5.35;1.45;;;;;;;17.93;66.35;101167.56;5035682;28;20044;-77
2022/06/19 11:22:44;;;;;;;7.03;1.88;;;;;;;17.67;67.73;101150.44;5034295;28;20061;-76
2022/06/19 11:25:18;;;;;;;7.38;1.70;;;;;;;18.02;66.71;101149.72;5034111;28;20075;-76
2022/06/19 11:27:52;;;;;;;8.90;1.60;;;;;;;17.90;66.57;101162.78;5034727;28;20033;-76
2022/06/19 11:30:31;;;;;;;8.73;1.65;;;;;;;18.04;66.60;101158.94;5035209;28;20033;-78
2022/06/19 11:32:57;;;;;;;6.43;1.48;;;;;;;17.97;66.04;101158.22;5033823;28;20049;-78
2022/06/19 11:35:23;;;;;;;7.15;1.90;;;;;;;17.74;67.61;101158.19;5033955;28;20029;-77
2022/06/19 11:37:54;;;;;;;8.02;2.00;;;;;;;17.25;67.68;101165.31;5033947;28;20025;-77
2022/06/19 11:40:32;;;;;;;7.40;1.98;;;;;;;16.97;68.86;101199.81;5033673;28;20436;-76